createdAt,value
2022-11-18T00:01:38.587Z,0.60
2022-11-18T00:03:41.453Z,0.70
2022-11-18T00:05:43.365Z,0.65
2022-11-18T00:07:45.061Z,0.57
2022-11-18T00:09:46.692Z,1.00
2022-11-18T00:12:07.085Z,0.55
2022-11-18T00:14:20.736Z,0.60
2022-11-18T00:16:23.539Z,0.60
2022-11-18T00:18:26.587Z,0.70
2022-11-18T00:20:28.349Z,0.60
2022-11-18T00:22:30.192Z,0.60
2022-11-18T00:24:32.164Z,0.80
2022-11-18T00:26:33.991Z,0.80
2022-11-18T00:28:36.244Z,0.70
2022-11-18T00:30:37.893Z,0.95
2022-11-18T00:32:39.620Z,0.50
2022-11-18T00:34:42.416Z,0.50
2022-11-18T00:36:45.016Z,0.60
2022-11-18T00:38:46.616Z,0.50
2022-11-18T00:40:48.320Z,0.80
2022-11-18T00:42:53.672Z,0.60
2022-11-18T00:44:55.330Z,0.70
2022-11-18T00:46:57.223Z,0.60
2022-11-18T00:48:58.861Z,0.70
2022-11-18T00:51:17.430Z,0.60
2022-11-18T00:53:20.712Z,0.73
2022-11-18T00:55:22.407Z,0.60
2022-11-18T00:57:24.018Z,0.60
2022-11-18T00:59:26.042Z,0.63
2022-11-18T01:01:27.767Z,0.82
2022-11-18T01:03:29.989Z,0.77
2022-11-18T01:05:31.637Z,0.73
2022-11-18T01:07:33.343Z,0.73
2022-11-18T01:09:35.146Z,0.70
2022-11-18T01:11:55.622Z,0.60
2022-11-18T01:13:57.249Z,0.63
2022-11-18T01:15:58.858Z,0.52
2022-11-18T01:18:00.493Z,0.70
2022-11-18T01:20:02.173Z,0.60
2022-11-18T01:22:03.864Z,0.47
2022-11-18T01:24:06.056Z,0.65
2022-11-18T01:26:10.292Z,0.63
2022-11-18T01:28:13.023Z,0.60
2022-11-18T01:30:16.834Z,0.70
2022-11-18T01:32:24.374Z,0.75
2022-11-18T01:34:29.131Z,1.00
2022-11-18T01:36:30.847Z,0.60
2022-11-18T01:38:32.504Z,0.57
2022-11-18T01:40:34.975Z,0.70
2022-11-18T01:42:37.126Z,0.50
2022-11-18T01:45:02.116Z,0.45
2022-11-18T01:47:03.774Z,0.70
2022-11-18T01:49:14.186Z,0.60
2022-11-18T01:51:19.223Z,0.52
2022-11-18T01:53:28.785Z,0.70
2022-11-18T01:55:34.765Z,0.60
2022-11-18T01:57:36.824Z,0.70
2022-11-18T01:59:42.064Z,0.50
2022-11-18T02:01:44.185Z,0.40
2022-11-18T02:03:46.696Z,0.82
2022-11-18T02:05:50.191Z,0.50
2022-11-18T02:07:51.912Z,0.40
2022-11-18T02:09:55.869Z,0.50
2022-11-18T02:11:57.679Z,0.60
2022-11-18T02:14:02.152Z,0.45
2022-11-18T02:16:15.596Z,0.50
2022-11-18T02:18:17.236Z,0.50
2022-11-18T02:20:32.817Z,0.47
2022-11-18T02:22:56.018Z,0.40
2022-11-18T02:25:26.027Z,0.40
2022-11-18T02:27:39.588Z,0.40
2022-11-18T02:29:56.703Z,0.50
2022-11-18T02:32:02.957Z,0.52
2022-11-18T02:34:10.556Z,0.70
2022-11-18T02:36:20.348Z,0.45
2022-11-18T02:38:30.704Z,0.50
2022-11-18T02:40:35.935Z,0.60
2022-11-18T02:42:40.576Z,0.57
2022-11-18T02:44:46.088Z,0.60
2022-11-18T02:46:52.086Z,0.60
2022-11-18T02:48:54.584Z,0.52
2022-11-18T02:50:57.690Z,0.43
2022-11-18T02:53:03.036Z,0.52
2022-11-18T02:55:09.036Z,0.55
2022-11-18T02:57:11.240Z,0.60
2022-11-18T02:59:18.578Z,0.50
2022-11-18T03:01:24.764Z,0.55
2022-11-18T03:03:36.650Z,0.40
2022-11-18T03:05:49.456Z,0.50
2022-11-18T03:07:56.777Z,0.57
2022-11-18T03:09:59.979Z,0.50
2022-11-18T03:12:18.808Z,0.50
2022-11-18T03:14:46.523Z,0.40
2022-11-18T03:17:16.290Z,0.40
2022-11-18T03:19:20.685Z,0.50
2022-11-18T03:21:36.221Z,0.40
2022-11-18T03:23:43.312Z,0.60
2022-11-18T03:25:51.118Z,0.40
2022-11-18T03:28:07.684Z,0.52
2022-11-18T03:30:14.160Z,0.32
2022-11-18T03:32:21.390Z,0.40
2022-11-18T03:34:35.237Z,0.40
2022-11-18T03:36:41.765Z,0.30
2022-11-18T03:38:48.716Z,0.40
2022-11-18T03:40:55.365Z,0.70
2022-11-18T03:43:03.952Z,0.40
2022-11-18T03:45:14.725Z,0.30
2022-11-18T03:47:26.352Z,0.30
2022-11-18T03:49:36.074Z,0.40
2022-11-18T03:51:47.084Z,0.50
2022-11-18T03:53:57.702Z,0.40
2022-11-18T03:56:06.584Z,0.32
2022-11-18T03:58:18.433Z,0.50
2022-11-18T04:00:20.359Z,0.40
2022-11-18T04:02:25.162Z,0.50
2022-11-18T04:04:27.904Z,0.35
2022-11-18T04:06:46.017Z,0.40
2022-11-18T04:08:54.675Z,0.32
2022-11-18T04:11:05.139Z,0.40
2022-11-18T04:13:09.507Z,0.40
2022-11-18T04:15:11.831Z,0.40
2022-11-18T04:17:16.646Z,0.43
2022-11-18T04:19:18.544Z,0.50
2022-11-18T04:21:20.472Z,0.40
2022-11-18T04:23:22.656Z,0.50
2022-11-18T04:25:24.483Z,0.55
2022-11-18T04:27:26.117Z,0.50
2022-11-18T04:29:27.972Z,0.60
2022-11-18T04:31:29.636Z,0.47
2022-11-18T04:33:31.297Z,0.40
2022-11-18T04:35:32.982Z,0.40
2022-11-18T04:37:35.018Z,0.50
2022-11-18T04:39:36.673Z,0.35
2022-11-18T04:41:56.378Z,0.32
2022-11-18T04:43:57.969Z,0.30
2022-11-18T04:45:59.619Z,0.52
2022-11-18T04:48:03.703Z,1.00
2022-11-18T04:50:06.145Z,0.50
2022-11-18T04:52:07.872Z,0.77
2022-11-18T04:54:10.483Z,0.85
2022-11-18T04:56:12.128Z,0.40
2022-11-18T04:58:13.769Z,0.60
2022-11-18T05:00:15.767Z,0.90
2022-11-18T05:02:18.572Z,0.75
2022-11-18T05:04:22.717Z,0.70
2022-11-18T05:06:24.348Z,0.93
2022-11-18T05:08:26.000Z,0.70
2022-11-18T05:10:27.663Z,1.45
2022-11-18T05:12:48.196Z,1.58
2022-11-18T05:14:50.994Z,1.67
2022-11-18T05:16:53.863Z,1.70
2022-11-18T05:18:55.495Z,3.20
2022-11-18T05:20:57.098Z,2.67
2022-11-18T05:22:58.776Z,2.15
2022-11-18T05:25:00.481Z,2.85
2022-11-18T05:27:02.208Z,3.10
2022-11-18T05:29:03.982Z,2.38
2022-11-18T05:31:10.629Z,2.33
2022-11-18T05:33:12.270Z,2.22
2022-11-18T05:35:13.969Z,1.50
2022-11-18T05:37:15.632Z,2.30
2022-11-18T05:39:17.836Z,1.83
2022-11-18T05:41:38.733Z,1.95
2022-11-18T05:43:40.319Z,1.40
2022-11-18T05:45:44.024Z,2.30
2022-11-18T05:48:01.109Z,1.58
2022-11-18T05:50:02.829Z,1.45
2022-11-18T05:52:04.834Z,1.40
2022-11-18T05:54:08.915Z,2.70
2022-11-18T05:56:27.085Z,1.38
2022-11-18T05:58:29.936Z,2.30
2022-11-18T06:00:32.534Z,2.72
2022-11-18T06:02:34.323Z,1.85
2022-11-18T06:04:44.853Z,1.60
2022-11-18T06:06:49.049Z,1.35
2022-11-18T06:09:01.459Z,1.95
2022-11-18T06:11:03.829Z,2.03
2022-11-18T06:13:08.937Z,1.52
2022-11-18T06:15:13.337Z,1.60
2022-11-18T06:17:20.324Z,1.65
2022-11-18T06:19:22.381Z,1.55
2022-11-18T06:21:24.153Z,1.48
2022-11-18T06:23:28.037Z,1.33
2022-11-18T06:25:30.053Z,1.42
2022-11-18T06:27:32.382Z,1.42
2022-11-18T06:29:34.396Z,2.10
2022-11-18T06:31:36.015Z,1.48
2022-11-18T06:33:37.670Z,1.42
2022-11-18T06:35:39.453Z,1.20
2022-11-18T06:37:41.180Z,1.58
2022-11-18T06:39:42.976Z,1.20
2022-11-18T06:41:44.604Z,1.48
2022-11-18T06:43:46.316Z,1.40
2022-11-18T06:46:09.479Z,1.17
2022-11-18T06:48:11.247Z,1.17
2022-11-18T06:50:12.947Z,0.80
2022-11-18T06:52:14.616Z,1.13
2022-11-18T06:54:16.243Z,1.48
2022-11-18T06:56:19.415Z,0.80
2022-11-18T06:58:21.063Z,1.08
2022-11-18T07:00:22.788Z,1.08
2022-11-18T07:02:24.404Z,1.17
2022-11-18T07:04:26.089Z,0.93
2022-11-18T07:06:30.324Z,1.00
2022-11-18T07:08:32.028Z,0.85
2022-11-18T07:10:33.678Z,1.13
2022-11-18T07:12:35.281Z,1.05
2022-11-18T07:14:36.939Z,0.80
2022-11-18T07:16:38.576Z,0.93
2022-11-18T07:18:41.678Z,1.17
2022-11-18T07:20:43.332Z,0.80
2022-11-18T07:22:44.981Z,0.77
2022-11-18T07:24:46.636Z,0.93
2022-11-18T07:26:48.992Z,0.85
2022-11-18T07:28:51.029Z,1.27
2022-11-18T07:30:52.975Z,0.93
2022-11-18T07:32:54.612Z,0.85
2022-11-18T07:34:56.240Z,1.30
2022-11-18T07:36:57.934Z,0.75
2022-11-18T07:39:01.518Z,0.70
2022-11-18T07:41:11.405Z,0.70
2022-11-18T07:43:13.093Z,0.82
2022-11-18T07:45:14.761Z,0.90
2022-11-18T07:47:16.437Z,1.02
2022-11-18T07:49:18.286Z,0.85
2022-11-18T07:51:23.023Z,0.75
2022-11-18T07:53:24.682Z,1.08
2022-11-18T07:55:31.881Z,1.00
2022-11-18T07:57:33.881Z,0.60
2022-11-18T07:59:35.541Z,0.70
2022-11-18T08:01:37.487Z,0.90
2022-11-18T08:03:40.136Z,0.70
2022-11-18T08:05:42.049Z,0.60
2022-11-18T08:07:44.029Z,0.60
2022-11-18T08:09:45.719Z,1.27
2022-11-18T08:11:47.447Z,0.70
2022-11-18T08:13:49.147Z,0.95
2022-11-18T08:15:50.841Z,1.05
2022-11-18T08:17:52.568Z,0.70
2022-11-18T08:19:54.251Z,0.47
2022-11-18T08:21:55.881Z,0.60
2022-11-18T08:23:58.632Z,0.57
2022-11-18T08:26:14.548Z,0.90
2022-11-18T08:28:16.818Z,0.80
2022-11-18T08:30:18.906Z,0.88
2022-11-18T08:32:20.531Z,1.30
2022-11-18T08:34:22.158Z,1.80
2022-11-18T08:36:26.384Z,1.20
2022-11-18T08:38:27.995Z,0.80
2022-11-18T08:40:29.771Z,0.93
2022-11-18T08:42:34.406Z,0.90
2022-11-18T08:44:37.017Z,0.80
2022-11-18T08:46:38.685Z,0.85
2022-11-18T08:48:40.380Z,0.98
2022-11-18T08:50:42.000Z,1.40
2022-11-18T08:52:43.657Z,0.93
2022-11-18T08:54:45.312Z,0.73
2022-11-18T08:56:46.995Z,0.63
2022-11-18T08:58:48.629Z,1.10
2022-11-18T09:00:50.414Z,1.23
2022-11-18T09:02:52.768Z,0.90
2022-11-18T09:04:54.512Z,1.00
2022-11-18T09:06:56.196Z,0.63
2022-11-18T09:09:00.752Z,0.73
2022-11-18T09:11:10.960Z,0.95
2022-11-18T09:13:40.349Z,0.85
2022-11-18T09:15:35.269Z,0.95
2022-11-18T09:17:36.904Z,0.77
2022-11-18T09:19:47.721Z,0.88
2022-11-18T09:21:49.979Z,0.57
2022-11-18T09:23:52.137Z,1.15
2022-11-18T09:26:05.330Z,1.10
2022-11-18T09:28:06.976Z,0.93
2022-11-18T09:30:09.395Z,1.10
2022-11-18T09:32:11.059Z,0.70
2022-11-18T09:34:12.748Z,1.30
2022-11-18T09:36:20.592Z,1.00
2022-11-18T09:38:22.472Z,1.10
2022-11-18T09:40:25.811Z,1.13
2022-11-18T09:42:41.221Z,0.70
2022-11-18T09:45:24.699Z,0.60
2022-11-18T09:47:33.138Z,0.77
2022-11-18T09:49:40.416Z,0.77
2022-11-18T09:51:45.099Z,0.80
2022-11-18T09:53:46.811Z,0.90
2022-11-18T09:55:50.779Z,0.70
2022-11-18T09:57:55.484Z,1.20
2022-11-18T09:59:58.077Z,0.60
2022-11-18T10:02:13.342Z,0.77
2022-11-18T10:04:17.669Z,0.57
2022-11-18T10:06:31.508Z,0.90
2022-11-18T10:08:45.906Z,0.80
2022-11-18T10:11:10.936Z,0.65
2022-11-18T10:13:27.934Z,0.60
2022-11-18T10:15:39.177Z,0.75
2022-11-18T10:20:10.136Z,0.70
2022-11-18T10:22:30.825Z,0.73
2022-11-18T10:24:53.536Z,0.63
2022-11-18T10:26:57.901Z,0.77
2022-11-18T10:28:59.535Z,0.63
2022-11-18T10:31:09.605Z,0.70
2022-11-18T10:33:22.012Z,0.55
2022-11-18T10:35:32.971Z,0.55
2022-11-18T10:38:07.487Z,0.57
2022-11-18T10:40:01.892Z,0.60
2022-11-18T10:42:06.412Z,0.63
2022-11-18T10:44:35.148Z,0.90
2022-11-18T10:46:40.187Z,0.68
2022-11-18T10:48:41.861Z,0.50
2022-11-18T10:50:50.461Z,0.57
2022-11-18T10:52:55.416Z,0.60
2022-11-18T10:55:14.168Z,0.55
2022-11-18T10:57:22.929Z,0.80
2022-11-18T10:59:56.395Z,0.50
2022-11-18T11:02:11.290Z,0.40
2022-11-18T11:04:22.511Z,0.60
2022-11-18T11:06:27.290Z,0.50
2022-11-18T11:08:36.908Z,0.47
2022-11-18T11:10:39.421Z,0.70
2022-11-18T11:12:53.635Z,0.77
2022-11-18T11:14:58.011Z,0.60
2022-11-18T11:17:15.231Z,0.50
2022-11-18T11:19:20.014Z,0.40
2022-11-18T11:21:23.171Z,0.90
2022-11-18T11:23:25.820Z,0.40
2022-11-18T11:28:15.307Z,0.70
2022-11-18T11:30:22.819Z,0.52
2022-11-18T11:32:30.786Z,0.60
2022-11-18T11:35:05.780Z,0.63
2022-11-18T11:37:46.913Z,0.50
2022-11-18T11:40:00.186Z,0.50
2022-11-18T11:42:21.932Z,0.50
2022-11-18T11:44:53.987Z,0.52
2022-11-18T11:47:20.234Z,0.40
2022-11-18T11:49:30.974Z,0.70
2022-11-18T11:51:44.506Z,0.55
2022-11-18T11:54:04.861Z,0.60
2022-11-18T11:56:24.214Z,0.40
2022-11-18T11:58:38.080Z,0.60
2022-11-18T12:00:52.479Z,0.40
2022-11-18T12:03:21.120Z,0.40
2022-11-18T12:05:34.268Z,0.50
2022-11-18T12:07:45.628Z,0.60
2022-11-18T12:09:59.292Z,0.60
2022-11-18T12:12:36.226Z,0.60
2022-11-18T12:14:48.786Z,0.60
2022-11-18T12:17:11.938Z,0.47
2022-11-18T12:19:19.950Z,0.55
2022-11-18T12:21:46.577Z,0.60
2022-11-18T12:24:17.389Z,0.77
2022-11-18T12:26:35.342Z,0.52
2022-11-18T12:28:43.091Z,0.50
2022-11-18T12:30:44.759Z,0.45
2022-11-18T12:32:46.855Z,0.60
2022-11-18T12:34:58.510Z,0.77
2022-11-18T12:37:26.008Z,0.60
2022-11-18T12:39:27.635Z,0.77
2022-11-18T12:42:00.215Z,0.70
2022-11-18T12:44:01.855Z,0.90
2022-11-18T12:46:03.483Z,0.60
2022-11-18T12:48:27.752Z,0.70
2022-11-18T12:50:55.834Z,0.80
2022-11-18T12:52:57.536Z,0.70
2022-11-18T12:55:03.877Z,0.43
2022-11-18T12:57:28.250Z,1.02
2022-11-18T12:59:35.945Z,0.73
2022-11-18T13:01:37.622Z,0.60
2022-11-18T13:03:39.433Z,0.60
2022-11-18T13:05:42.234Z,0.88
2022-11-18T13:08:25.444Z,0.60
2022-11-18T13:10:30.405Z,0.55
2022-11-18T13:12:32.874Z,0.82
2022-11-18T13:14:57.620Z,0.65
2022-11-18T13:17:17.918Z,0.40
2022-11-18T13:19:24.170Z,0.80
2022-11-18T13:21:47.534Z,0.68
2022-11-18T13:23:56.185Z,0.60
2022-11-18T13:26:28.568Z,0.60
2022-11-18T13:28:45.409Z,0.55
2022-11-18T13:31:27.570Z,0.95
2022-11-18T13:33:34.094Z,0.63
2022-11-18T13:35:40.566Z,0.68
2022-11-18T13:38:27.745Z,0.80
2022-11-18T13:40:38.579Z,0.43
2022-11-18T13:42:45.032Z,0.55
2022-11-18T13:44:58.686Z,0.68
2022-11-18T13:47:23.291Z,0.57
2022-11-18T13:49:50.351Z,0.60
2022-11-18T13:51:52.618Z,0.60
2022-11-18T13:53:54.407Z,0.55
2022-11-18T13:56:03.000Z,0.73
2022-11-18T13:58:19.925Z,0.63
2022-11-18T14:00:28.377Z,0.60
2022-11-18T14:02:30.335Z,0.63
2022-11-18T14:04:32.846Z,0.60
2022-11-18T14:06:36.906Z,0.50
2022-11-18T14:08:39.685Z,0.85
2022-11-18T14:10:44.442Z,0.68
2022-11-18T14:12:59.853Z,0.80
2022-11-18T14:15:23.190Z,0.70
2022-11-18T14:17:28.762Z,0.80
2022-11-18T14:19:32.338Z,0.70
2022-11-18T14:21:35.967Z,0.60
2022-11-18T14:23:42.175Z,0.60
2022-11-18T14:25:45.124Z,0.60
2022-11-18T14:27:52.206Z,0.50
2022-11-18T14:29:53.859Z,0.77
2022-11-18T14:32:16.819Z,1.02
2022-11-18T14:34:26.864Z,0.75
2022-11-18T14:36:29.740Z,0.82
2022-11-18T14:41:10.875Z,0.88
2022-11-18T14:43:13.871Z,1.23
2022-11-18T14:45:15.621Z,1.70
2022-11-18T14:47:28.132Z,1.17
2022-11-18T14:49:32.533Z,1.08
2022-11-18T14:51:34.170Z,0.95
2022-11-18T14:53:35.780Z,1.27
2022-11-18T14:55:37.422Z,1.13
2022-11-18T14:57:39.110Z,1.23
2022-11-18T14:59:40.767Z,0.90
2022-11-18T15:01:43.735Z,1.05
2022-11-18T15:03:45.489Z,0.98
2022-11-18T15:05:47.194Z,1.10
2022-11-18T15:07:48.862Z,1.00
2022-11-18T15:09:50.695Z,1.05
2022-11-18T15:11:52.451Z,1.35
2022-11-18T15:13:54.489Z,0.90
2022-11-18T15:15:56.177Z,1.10
2022-11-18T15:17:57.918Z,0.95
2022-11-18T15:19:59.521Z,1.02
2022-11-18T15:22:01.203Z,0.80
2022-11-18T15:24:03.358Z,1.15
2022-11-18T15:26:35.792Z,0.80
2022-11-18T15:28:37.522Z,0.90
2022-11-18T15:30:39.415Z,0.85
2022-11-18T15:32:41.424Z,0.88
2022-11-18T15:34:43.041Z,1.00
2022-11-18T15:36:44.822Z,0.70
2022-11-18T15:38:47.497Z,1.08
2022-11-18T15:40:49.147Z,0.70
2022-11-18T15:42:52.415Z,1.30
2022-11-18T15:44:54.165Z,1.08
2022-11-18T15:46:57.171Z,0.75
2022-11-18T15:48:59.816Z,0.88
2022-11-18T15:51:01.605Z,0.60
2022-11-18T15:53:03.214Z,0.95
2022-11-18T15:55:08.096Z,1.23
2022-11-18T15:57:09.926Z,1.10
2022-11-18T15:59:13.906Z,0.77
2022-11-18T16:01:15.579Z,0.65
2022-11-18T16:03:17.222Z,1.02
2022-11-18T16:05:18.911Z,0.80
2022-11-18T16:07:20.571Z,1.10
2022-11-18T16:09:22.643Z,1.08
2022-11-18T16:11:43.137Z,1.10
2022-11-18T16:13:44.802Z,1.50
2022-11-18T16:15:48.360Z,1.10
2022-11-18T16:17:50.176Z,1.38
2022-11-18T16:19:51.905Z,1.40
2022-11-18T16:21:55.830Z,1.08
2022-11-18T16:23:58.867Z,1.25
2022-11-18T16:26:00.503Z,0.98
2022-11-18T16:28:07.241Z,1.20
2022-11-18T16:30:29.880Z,1.00
2022-11-18T16:32:31.844Z,1.30
2022-11-18T16:34:33.491Z,1.00
2022-11-18T16:36:42.882Z,0.90
2022-11-18T16:38:44.463Z,1.10
2022-11-18T16:40:46.102Z,1.10
2022-11-18T16:42:51.639Z,1.30
2022-11-18T16:44:53.282Z,1.20
2022-11-18T16:46:57.436Z,1.00
2022-11-18T16:48:59.150Z,1.20
2022-11-18T16:51:21.351Z,0.90
2022-11-18T16:53:22.954Z,1.15
2022-11-18T16:55:24.624Z,0.90
2022-11-18T16:57:26.290Z,1.00
2022-11-18T16:59:30.056Z,1.27
2022-11-18T17:01:32.968Z,1.10
2022-11-18T17:03:34.792Z,1.60
2022-11-18T17:05:36.525Z,1.10
2022-11-18T17:07:38.888Z,1.10
2022-11-18T17:09:40.758Z,1.48
2022-11-18T17:11:42.626Z,1.20
2022-11-18T17:13:45.253Z,1.30
2022-11-18T17:15:46.844Z,1.40
2022-11-18T17:17:48.475Z,1.42
2022-11-18T17:19:50.725Z,1.50
2022-11-18T17:21:52.712Z,1.35
2022-11-18T17:23:54.931Z,1.85
2022-11-18T17:25:56.946Z,1.40
2022-11-18T17:27:58.532Z,1.30
2022-11-18T17:30:00.165Z,1.27
2022-11-18T17:32:01.968Z,1.45
2022-11-18T17:34:03.977Z,1.90
2022-11-18T17:36:07.839Z,1.50
2022-11-18T17:38:09.502Z,1.45
2022-11-18T17:40:11.553Z,2.03
2022-11-18T17:42:18.938Z,1.77
2022-11-18T17:44:20.963Z,1.10
2022-11-18T17:46:23.043Z,1.85
2022-11-18T17:48:26.458Z,1.80
2022-11-18T17:50:28.102Z,2.10
2022-11-18T17:52:29.706Z,2.05
2022-11-18T17:54:31.323Z,1.63
2022-11-18T17:56:33.071Z,1.60
2022-11-18T17:58:34.742Z,1.98
2022-11-18T18:00:37.585Z,1.60
2022-11-18T18:02:39.185Z,1.58
2022-11-18T18:04:40.827Z,1.50
2022-11-18T18:06:42.694Z,1.63
2022-11-18T18:08:44.470Z,1.58
2022-11-18T18:10:46.122Z,1.63
2022-11-18T18:13:06.996Z,2.08
2022-11-18T18:15:10.206Z,1.23
2022-11-18T18:17:11.892Z,1.58
2022-11-18T18:19:19.285Z,1.92
2022-11-18T18:21:20.942Z,1.40
2022-11-18T18:23:22.737Z,1.70
2022-11-18T18:25:24.371Z,1.45
2022-11-18T18:27:25.991Z,1.58
2022-11-18T18:29:27.619Z,1.80
2022-11-18T18:31:36.414Z,1.77
2022-11-18T18:33:44.880Z,1.50
2022-11-18T18:35:46.590Z,1.80
2022-11-18T18:37:48.199Z,1.30
2022-11-18T18:39:49.921Z,1.85
2022-11-18T18:41:51.555Z,1.67
2022-11-18T18:43:53.205Z,1.33
2022-11-18T18:46:20.953Z,1.60
2022-11-18T18:48:22.551Z,1.52
2022-11-18T18:50:29.540Z,1.38
2022-11-18T18:52:32.395Z,1.65
2022-11-18T18:54:34.024Z,1.38
2022-11-18T18:56:35.686Z,1.60
2022-11-18T18:58:37.449Z,1.27
2022-11-18T19:00:39.125Z,1.30
2022-11-18T19:02:40.892Z,1.60
2022-11-18T19:04:44.857Z,1.50
2022-11-18T19:07:02.864Z,1.60
2022-11-18T19:09:06.553Z,1.27
2022-11-18T19:11:08.340Z,1.48
2022-11-18T19:13:09.972Z,1.90
2022-11-18T19:15:13.787Z,1.70
2022-11-18T19:17:15.971Z,1.92
2022-11-18T19:19:43.333Z,1.90
2022-11-18T19:21:47.614Z,1.90
2022-11-18T19:23:49.268Z,2.38
2022-11-18T19:25:59.123Z,3.22
2022-11-18T19:28:01.108Z,3.85
2022-11-18T19:30:02.870Z,3.47
2022-11-18T19:32:04.638Z,3.38
2022-11-18T19:34:06.262Z,3.25
2022-11-18T19:36:09.132Z,3.08
2022-11-18T19:38:10.770Z,2.60
2022-11-18T19:40:12.706Z,2.78
2022-11-18T19:42:14.421Z,2.97
2022-11-18T19:44:16.141Z,2.28
2022-11-18T19:46:17.786Z,3.00
2022-11-18T19:48:19.757Z,3.38
2022-11-18T19:50:21.563Z,2.63
2022-11-18T19:52:23.253Z,2.50
2022-11-18T19:54:24.858Z,3.10
2022-11-18T19:56:26.722Z,3.03
2022-11-18T19:58:30.697Z,2.83
2022-11-18T20:00:32.350Z,2.60
2022-11-18T20:02:33.961Z,2.17
2022-11-18T20:04:35.598Z,2.05
2022-11-18T20:06:37.850Z,2.55
2022-11-18T20:08:40.814Z,2.30
2022-11-18T20:10:42.406Z,2.25
2022-11-18T20:12:44.034Z,2.40
2022-11-18T20:14:45.610Z,2.47
2022-11-18T20:16:47.385Z,1.98
2022-11-18T20:18:57.379Z,2.08
2022-11-18T20:21:11.006Z,2.28
2022-11-18T20:23:12.719Z,2.38
2022-11-18T20:25:15.543Z,2.05
2022-11-18T20:27:18.650Z,1.90
2022-11-18T20:29:21.091Z,2.03
2022-11-18T20:31:23.400Z,1.98
2022-11-18T20:33:25.038Z,2.08
2022-11-18T20:35:26.677Z,1.83
2022-11-18T20:37:29.294Z,1.75
2022-11-18T20:39:31.006Z,1.60
2022-11-18T20:41:32.771Z,2.13
2022-11-18T20:43:36.838Z,2.03
2022-11-18T20:45:43.513Z,1.75
2022-11-18T20:47:45.374Z,1.73
2022-11-18T20:49:47.389Z,1.70
2022-11-18T20:51:48.970Z,1.90
2022-11-18T20:53:52.000Z,1.75
2022-11-18T20:55:53.651Z,1.42
2022-11-18T20:57:55.279Z,1.70
2022-11-18T20:59:57.012Z,1.80
2022-11-18T21:01:58.742Z,1.50
2022-11-18T21:04:01.737Z,1.52
2022-11-18T21:06:14.634Z,1.58
2022-11-18T21:08:16.370Z,1.40
2022-11-18T21:10:18.017Z,1.45
2022-11-18T21:12:19.685Z,1.40
2022-11-18T21:14:24.775Z,1.30
2022-11-18T21:16:27.884Z,1.30
2022-11-18T21:18:29.641Z,1.60
2022-11-18T21:20:50.669Z,1.65
2022-11-18T21:22:52.324Z,1.10
2022-11-18T21:24:54.229Z,1.13
2022-11-18T21:26:57.827Z,1.58
2022-11-18T21:29:01.864Z,1.95
2022-11-18T21:31:03.514Z,1.17
2022-11-18T21:33:05.273Z,1.20
2022-11-18T21:35:07.191Z,1.20
2022-11-18T21:37:08.922Z,1.05
2022-11-18T21:39:10.989Z,1.33
2022-11-18T21:41:13.231Z,1.25
2022-11-18T21:43:14.862Z,1.27
2022-11-18T21:45:18.093Z,1.45
2022-11-18T21:47:19.733Z,1.15
2022-11-18T21:49:21.738Z,1.15
2022-11-18T21:51:28.069Z,1.33
2022-11-18T21:53:30.297Z,1.17
2022-11-18T21:55:31.909Z,1.05
2022-11-18T21:57:33.567Z,1.00
2022-11-18T21:59:35.168Z,0.93
2022-11-18T22:01:36.800Z,1.20
2022-11-18T22:03:40.505Z,1.10
2022-11-18T22:05:42.110Z,1.25
2022-11-18T22:07:43.720Z,1.13
2022-11-18T22:09:45.371Z,1.55
2022-11-18T22:11:47.007Z,1.02
2022-11-18T22:13:50.452Z,1.10
2022-11-18T22:16:04.946Z,1.20
2022-11-18T22:18:06.644Z,1.42
2022-11-18T22:20:08.980Z,1.30
2022-11-18T22:22:10.602Z,1.30
2022-11-18T22:24:12.240Z,0.90
2022-11-18T22:26:19.204Z,1.17
2022-11-18T22:28:20.844Z,1.00
2022-11-18T22:30:22.442Z,1.10
2022-11-18T22:32:24.367Z,0.90
2022-11-18T22:34:26.403Z,1.00
2022-11-18T22:36:28.075Z,0.70
2022-11-18T22:38:29.999Z,1.10
2022-11-18T22:40:31.624Z,0.95
2022-11-18T22:42:48.424Z,1.00
2022-11-18T22:44:50.114Z,0.93
2022-11-18T22:46:52.387Z,0.77
2022-11-18T22:48:56.115Z,0.98
2022-11-18T22:51:05.282Z,1.17
2022-11-18T22:53:06.937Z,0.85
2022-11-18T22:55:09.581Z,1.20
2022-11-18T22:57:11.401Z,0.93
2022-11-18T22:59:13.328Z,0.73
2022-11-18T23:01:20.870Z,0.77
2022-11-18T23:03:22.515Z,0.80
2022-11-18T23:05:24.114Z,1.15
2022-11-18T23:07:25.830Z,1.00
2022-11-18T23:09:30.422Z,1.15
2022-11-18T23:11:50.507Z,0.88
2022-11-18T23:14:04.359Z,0.85
2022-11-18T23:16:06.422Z,0.80
2022-11-18T23:18:11.591Z,0.82
2022-11-18T23:20:13.821Z,0.90
2022-11-18T23:22:15.594Z,1.45
2022-11-18T23:24:19.001Z,0.80
2022-11-18T23:26:21.165Z,0.88
2022-11-18T23:28:22.853Z,0.70
2022-11-18T23:30:24.504Z,1.10
2022-11-18T23:32:26.094Z,1.00
2022-11-18T23:34:27.725Z,0.90
2022-11-18T23:36:29.395Z,0.80
2022-11-18T23:38:32.511Z,1.00
2022-11-18T23:40:34.126Z,0.63
2022-11-18T23:42:35.706Z,1.00
2022-11-18T23:44:46.224Z,0.70
2022-11-18T23:46:47.866Z,0.77
2022-11-18T23:48:49.544Z,0.70
2022-11-18T23:50:54.698Z,0.85
2022-11-18T23:52:56.343Z,1.00
2022-11-18T23:54:59.398Z,0.90
2022-11-18T23:57:01.273Z,0.85
2022-11-18T23:59:02.939Z,1.05
